Main page
METAR-TAF:

METAR-TAF

Airports :

Nueces County Airport

Robstown, Texas, United States

latitude: 27-46-42N, longitude: 097-41-25W, elevation: 79 ft

Current weather observation

The report was made 30 minutes ago, at 09:15 UTC
Wind 6 mph from the Southeast
Temperature 79°F
Humidity 94%
Pressure 29.74 in. Hg
Visibility: 5 miles
Overcast at a height of 3100 ft
mist

METAR: KRBO 190915Z AUTO 13005KT 5SM BR OVC031 26/25 A2974 RMK AO2 T02570246

Time: 04:45 (09:45 UTC)


TAF: missing

Weather observations and forecasts of more than 4000 airports (METAR and TAF reports).

The available stations are represented by yellow and red dots on the map.

Hover mouse over dot to see the name of the station.

Then click to see weather observations and forecasts.

To change the map : click on the green buttons with a black cross to zoom in, on the green button with a dash to zoom out, or on the green arrows for adjacent maps.


METAR-TAF: